sensor_id;sensor_type;location;lat;lon;timestamp;pressure;altitude;pressure_sealevel;temperature;humidity
15308;BME280;7755;52.208;6.964;2023-02-19T00:00:25;101208.19;;;10.13;100.00
15308;BME280;7755;52.208;6.964;2023-02-19T00:04:40;101212.78;;;10.12;100.00
15308;BME280;7755;52.208;6.964;2023-02-19T00:09:08;101218.00;;;10.14;100.00
15308;BME280;7755;52.208;6.964;2023-02-19T00:13:14;101210.47;;;10.16;100.00
15308;BME280;7755;52.208;6.964;2023-02-19T00:17:17;101212.50;;;10.21;100.00
15308;BME280;7755;52.208;6.964;2023-02-19T00:21:21;101213.97;;;10.23;100.00
15308;BME280;7755;52.208;6.964;2023-02-19T00:25:24;101214.97;;;10.22;100.00
15308;BME280;7755;52.208;6.964;2023-02-19T00:29:53;101217.69;;;10.22;100.00
15308;BME280;7755;52.208;6.964;2023-02-19T00:34:18;101210.78;;;10.26;100.00
15308;BME280;7755;52.208;6.964;2023-02-19T00:38:41;101221.91;;;10.25;100.00
15308;BME280;7755;52.208;6.964;2023-02-19T00:42:47;101218.34;;;10.24;100.00
15308;BME280;7755;52.208;6.964;2023-02-19T00:46:51;101209.97;;;10.26;100.00
15308;BME280;7755;52.208;6.964;2023-02-19T00:50:56;101202.03;;;10.24;100.00
15308;BME280;7755;52.208;6.964;2023-02-19T00:54:59;101207.25;;;10.26;100.00
15308;BME280;7755;52.208;6.964;2023-02-19T00:59:05;101207.25;;;10.26;100.00
15308;BME280;7755;52.208;6.964;2023-02-19T01:03:09;101209.97;;;10.26;100.00
15308;BME280;7755;52.208;6.964;2023-02-19T01:07:13;101214.34;;;10.27;100.00
15308;BME280;7755;52.208;6.964;2023-02-19T01:11:20;101214.56;;;10.25;100.00
15308;BME280;7755;52.208;6.964;2023-02-19T01:15:23;101213.75;;;10.25;100.00
15308;BME280;7755;52.208;6.964;2023-02-19T01:19:27;101207.47;;;10.24;100.00
15308;BME280;7755;52.208;6.964;2023-02-19T01:23:32;101211.63;;;10.27;100.00
15308;BME280;7755;52.208;6.964;2023-02-19T01:27:35;101212.00;;;10.30;100.00
15308;BME280;7755;52.208;6.964;2023-02-19T01:31:38;101212.59;;;10.32;100.00
15308;BME280;7755;52.208;6.964;2023-02-19T01:35:44;101212.00;;;10.30;100.00
15308;BME280;7755;52.208;6.964;2023-02-19T01:39:47;101195.91;;;10.29;100.00
15308;BME280;7755;52.208;6.964;2023-02-19T01:44:02;101203.22;;;10.28;100.00
15308;BME280;7755;52.208;6.964;2023-02-19T01:48:13;101210.31;;;10.29;100.00
15308;BME280;7755;52.208;6.964;2023-02-19T01:52:22;101218.72;;;10.28;100.00
15308;BME280;7755;52.208;6.964;2023-02-19T01:56:30;101214.56;;;10.25;100.00
15308;BME280;7755;52.208;6.964;2023-02-19T02:00:35;101213.75;;;10.25;100.00
15308;BME280;7755;52.208;6.964;2023-02-19T02:04:39;101211.03;;;10.25;100.00
15308;BME280;7755;52.208;6.964;2023-02-19T02:08:44;101214.81;;;10.24;100.00
15308;BME280;7755;52.208;6.964;2023-02-19T02:13:05;101212.91;;;10.24;100.00
15308;BME280;7755;52.208;6.964;2023-02-19T02:17:14;101217.53;;;10.24;100.00
15308;BME280;7755;52.208;6.964;2023-02-19T02:21:36;101223.13;;;10.22;100.00
15308;BME280;7755;52.208;6.964;2023-02-19T02:26:08;101222.38;;;10.15;100.00
15308;BME280;7755;52.208;6.964;2023-02-19T02:30:42;101220.72;;;10.14;100.00
15308;BME280;7755;52.208;6.964;2023-02-19T02:34:48;101220.94;;;10.12;100.00
15308;BME280;7755;52.208;6.964;2023-02-19T02:38:55;101222.00;;;10.11;100.00
15308;BME280;7755;52.208;6.964;2023-02-19T02:42:59;101221.84;;;10.06;100.00
15308;BME280;7755;52.208;6.964;2023-02-19T02:47:07;101217.88;;;10.02;100.00
15308;BME280;7755;52.208;6.964;2023-02-19T02:51:34;101229.63;;;10.03;100.00
15308;BME280;7755;52.208;6.964;2023-02-19T02:55:44;101229.00;;;10.01;100.00
15308;BME280;7755;52.208;6.964;2023-02-19T02:59:48;101222.72;;;10.00;100.00
15308;BME280;7755;52.208;6.964;2023-02-19T03:04:00;101216.09;;;9.96;100.00
15308;BME280;7755;52.208;6.964;2023-02-19T03:08:07;101224.69;;;9.93;100.00
15308;BME280;7755;52.208;6.964;2023-02-19T03:12:14;101242.63;;;9.94;100.00
15308;BME280;7755;52.208;6.964;2023-02-19T03:16:37;101245.22;;;9.89;100.00
15308;BME280;7755;52.208;6.964;2023-02-19T03:21:03;101244.16;;;9.90;100.00
15308;BME280;7755;52.208;6.964;2023-02-19T03:25:10;101257.50;;;9.92;100.00
15308;BME280;7755;52.208;6.964;2023-02-19T03:29:36;101263.16;;;9.90;100.00
15308;BME280;7755;52.208;6.964;2023-02-19T03:33:42;101259.00;;;9.88;100.00
15308;BME280;7755;52.208;6.964;2023-02-19T03:37:55;101265.72;;;9.85;100.00
15308;BME280;7755;52.208;6.964;2023-02-19T03:42:02;101271.38;;;9.83;100.00
15308;BME280;7755;52.208;6.964;2023-02-19T03:46:14;101276.78;;;9.83;100.00
15308;BME280;7755;52.208;6.964;2023-02-19T03:50:27;101279.72;;;9.82;100.00
15308;BME280;7755;52.208;6.964;2023-02-19T03:54:36;101278.88;;;9.81;100.00
15308;BME280;7755;52.208;6.964;2023-02-19T03:58:48;101286.19;;;9.81;100.00
15308;BME280;7755;52.208;6.964;2023-02-19T04:02:57;101282.06;;;9.78;100.00
15308;BME280;7755;52.208;6.964;2023-02-19T04:07:04;101301.50;;;9.75;100.00
15308;BME280;7755;52.208;6.964;2023-02-19T04:11:13;101303.38;;;9.75;100.00
15308;BME280;7755;52.208;6.964;2023-02-19T04:15:20;101305.47;;;9.73;100.00
15308;BME280;7755;52.208;6.964;2023-02-19T04:19:27;101314.09;;;9.70;100.00
15308;BME280;7755;52.208;6.964;2023-02-19T04:23:35;101323.88;;;9.71;100.00
15308;BME280;7755;52.208;6.964;2023-02-19T04:27:43;101323.28;;;9.69;100.00
15308;BME280;7755;52.208;6.964;2023-02-19T04:31:47;101333.09;;;9.70;100.00
15308;BME280;7755;52.208;6.964;2023-02-19T04:35:51;101334.56;;;9.66;100.00
15308;BME280;7755;52.208;6.964;2023-02-19T04:39:54;101342.94;;;9.64;100.00
15308;BME280;7755;52.208;6.964;2023-02-19T04:43:59;101339.78;;;9.67;100.00
15308;BME280;7755;52.208;6.964;2023-02-19T04:48:01;101350.47;;;9.62;100.00
15308;BME280;7755;52.208;6.964;2023-02-19T04:52:05;101359.03;;;9.59;100.00
15308;BME280;7755;52.208;6.964;2023-02-19T04:56:10;101350.91;;;9.59;100.00
15308;BME280;7755;52.208;6.964;2023-02-19T05:00:15;101365.50;;;9.65;100.00
15308;BME280;7755;52.208;6.964;2023-02-19T05:04:18;101372.56;;;9.66;100.00
15308;BME280;7755;52.208;6.964;2023-02-19T05:08:21;101380.13;;;9.64;100.00
15308;BME280;7755;52.208;6.964;2023-02-19T05:12:24;101377.63;;;9.62;100.00
15308;BME280;7755;52.208;6.964;2023-02-19T05:16:29;101386.78;;;9.61;100.00
15308;BME280;7755;52.208;6.964;2023-02-19T05:20:33;101388.06;;;9.58;100.00
15308;BME280;7755;52.208;6.964;2023-02-19T05:24:37;101402.72;;;9.57;100.00
15308;BME280;7755;52.208;6.964;2023-02-19T05:28:40;101401.03;;;9.56;100.00
15308;BME280;7755;52.208;6.964;2023-02-19T05:32:45;101402.94;;;9.56;100.00
15308;BME280;7755;52.208;6.964;2023-02-19T05:36:47;101414.63;;;9.56;100.00
15308;BME280;7755;52.208;6.964;2023-02-19T05:40:51;101410.66;;;9.52;100.00
15308;BME280;7755;52.208;6.964;2023-02-19T05:44:55;101421.28;;;9.54;100.00
15308;BME280;7755;52.208;6.964;2023-02-19T05:49:00;101419.44;;;9.48;100.00
15308;BME280;7755;52.208;6.964;2023-02-19T05:53:04;101413.00;;;9.49;100.00
15308;BME280;7755;52.208;6.964;2023-02-19T05:57:08;101425.09;;;9.46;100.00
15308;BME280;7755;52.208;6.964;2023-02-19T06:01:13;101428.25;;;9.43;100.00
15308;BME280;7755;52.208;6.964;2023-02-19T06:05:18;101433.69;;;9.43;100.00
15308;BME280;7755;52.208;6.964;2023-02-19T06:09:22;101436.81;;;9.40;100.00
15308;BME280;7755;52.208;6.964;2023-02-19T06:13:25;101424.91;;;9.41;100.00
15308;BME280;7755;52.208;6.964;2023-02-19T06:17:28;101446.81;;;9.40;100.00
15308;BME280;7755;52.208;6.964;2023-02-19T06:21:33;101451.66;;;9.38;100.00
15308;BME280;7755;52.208;6.964;2023-02-19T06:25:36;101458.13;;;9.37;100.00
15308;BME280;7755;52.208;6.964;2023-02-19T06:29:39;101467.50;;;9.34;100.00
15308;BME280;7755;52.208;6.964;2023-02-19T06:33:43;101475.47;;;9.36;100.00
15308;BME280;7755;52.208;6.964;2023-02-19T06:37:48;101474.19;;;9.38;100.00
15308;BME280;7755;52.208;6.964;2023-02-19T06:41:54;101485.03;;;9.38;100.00
15308;BME280;7755;52.208;6.964;2023-02-19T06:45:58;101499.66;;;9.37;100.00
15308;BME280;7755;52.208;6.964;2023-02-19T06:50:01;101518.88;;;9.36;100.00
15308;BME280;7755;52.208;6.964;2023-02-19T06:54:06;101526.59;;;9.32;100.00
15308;BME280;7755;52.208;6.964;2023-02-19T06:58:09;101534.97;;;9.30;100.00
15308;BME280;7755;52.208;6.964;2023-02-19T07:02:12;101538.72;;;9.23;100.00
15308;BME280;7755;52.208;6.964;2023-02-19T07:06:15;101548.53;;;9.24;100.00
15308;BME280;7755;52.208;6.964;2023-02-19T07:10:20;101567.53;;;9.17;100.00
15308;BME280;7755;52.208;6.964;2023-02-19T07:14:22;101567.94;;;9.21;100.00
15308;BME280;7755;52.208;6.964;2023-02-19T07:18:26;101567.53;;;9.17;100.00
15308;BME280;7755;52.208;6.964;2023-02-19T07:22:29;101577.97;;;9.07;100.00
15308;BME280;7755;52.208;6.964;2023-02-19T07:26:34;101583.81;;;9.04;100.00
15308;BME280;7755;52.208;6.964;2023-02-19T07:30:37;101587.97;;;8.93;100.00
15308;BME280;7755;52.208;6.964;2023-02-19T07:34:40;101600.72;;;8.99;100.00
15308;BME280;7755;52.208;6.964;2023-02-19T07:38:43;101599.88;;;8.92;100.00
15308;BME280;7755;52.208;6.964;2023-02-19T07:42:48;101614.47;;;8.85;100.00
15308;BME280;7755;52.208;6.964;2023-02-19T07:46:52;101624.25;;;8.79;100.00
15308;BME280;7755;52.208;6.964;2023-02-19T07:50:56;101638.66;;;8.80;100.00
15308;BME280;7755;52.208;6.964;2023-02-19T07:54:59;101642.63;;;8.77;100.00
15308;BME280;7755;52.208;6.964;2023-02-19T07:59:04;101647.78;;;8.65;100.00
15308;BME280;7755;52.208;6.964;2023-02-19T08:03:08;101651.75;;;8.63;100.00
15308;BME280;7755;52.208;6.964;2023-02-19T08:07:11;101655.91;;;8.59;100.00
15308;BME280;7755;52.208;6.964;2023-02-19T08:11:14;101660.28;;;8.60;100.00
15308;BME280;7755;52.208;6.964;2023-02-19T08:15:36;101671.75;;;8.48;100.00
15308;BME280;7755;52.208;6.964;2023-02-19T08:19:39;101685.47;;;8.40;100.00
15308;BME280;7755;52.208;6.964;2023-02-19T08:23:42;101701.81;;;8.26;100.00
15308;BME280;7755;52.208;6.964;2023-02-19T08:27:46;101700.69;;;8.07;100.00
15308;BME280;7755;52.208;6.964;2023-02-19T08:31:51;101702.69;;;7.98;100.00
15308;BME280;7755;52.208;6.964;2023-02-19T08:35:54;101715.31;;;7.84;100.00
15308;BME280;7755;52.208;6.964;2023-02-19T08:39:58;101727.19;;;7.83;100.00
15308;BME280;7755;52.208;6.964;2023-02-19T08:44:01;101739.44;;;7.79;100.00
15308;BME280;7755;52.208;6.964;2023-02-19T08:48:06;101752.72;;;7.74;100.00
15308;BME280;7755;52.208;6.964;2023-02-19T08:52:09;101749.19;;;7.74;100.00
15308;BME280;7755;52.208;6.964;2023-02-19T08:56:14;101754.84;;;7.79;100.00
15308;BME280;7755;52.208;6.964;2023-02-19T09:00:18;101767.53;;;7.78;100.00
15308;BME280;7755;52.208;6.964;2023-02-19T09:04:23;101776.50;;;7.79;100.00
15308;BME280;7755;52.208;6.964;2023-02-19T09:08:26;101783.16;;;7.76;100.00
15308;BME280;7755;52.208;6.964;2023-02-19T09:12:29;101794.44;;;7.80;100.00
15308;BME280;7755;52.208;6.964;2023-02-19T09:16:35;101798.59;;;7.82;100.00
15308;BME280;7755;52.208;6.964;2023-02-19T09:20:39;101803.25;;;7.88;100.00
15308;BME280;7755;52.208;6.964;2023-02-19T09:24:43;101797.25;;;7.93;100.00
15308;BME280;7755;52.208;6.964;2023-02-19T09:28:46;101812.47;;;7.94;100.00
15308;BME280;7755;52.208;6.964;2023-02-19T09:32:49;101826.84;;;7.94;100.00
15308;BME280;7755;52.208;6.964;2023-02-19T09:36:54;101838.16;;;8.05;100.00
15308;BME280;7755;52.208;6.964;2023-02-19T09:40:58;101848.66;;;8.14;100.00
15308;BME280;7755;52.208;6.964;2023-02-19T09:45:03;101860.38;;;8.21;100.00
15308;BME280;7755;52.208;6.964;2023-02-19T09:49:12;101880.25;;;8.29;100.00
15308;BME280;7755;52.208;6.964;2023-02-19T09:53:19;101895.06;;;8.33;100.00
15308;BME280;7755;52.208;6.964;2023-02-19T09:57:25;101895.00;;;8.26;100.00
15308;BME280;7755;52.208;6.964;2023-02-19T10:01:31;101903.78;;;8.28;100.00
15308;BME280;7755;52.208;6.964;2023-02-19T10:05:39;101891.34;;;8.34;100.00
15308;BME280;7755;52.208;6.964;2023-02-19T10:09:45;101905.41;;;8.44;100.00
15308;BME280;7755;52.208;6.964;2023-02-19T10:13:53;101919.47;;;8.54;100.00
15308;BME280;7755;52.208;6.964;2023-02-19T10:18:01;101925.47;;;8.50;100.00
15308;BME280;7755;52.208;6.964;2023-02-19T10:22:06;101919.53;;;8.39;100.00
15308;BME280;7755;52.208;6.964;2023-02-19T10:26:14;101915.34;;;8.37;100.00
15308;BME280;7755;52.208;6.964;2023-02-19T10:30:19;101932.91;;;8.41;100.00
15308;BME280;7755;52.208;6.964;2023-02-19T10:34:23;101938.56;;;8.46;100.00
15308;BME280;7755;52.208;6.964;2023-02-19T10:38:28;101949.13;;;8.62;100.00
15308;BME280;7755;52.208;6.964;2023-02-19T10:42:33;101947.44;;;8.61;100.00
15308;BME280;7755;52.208;6.964;2023-02-19T10:46:42;101944.06;;;8.59;100.00
15308;BME280;7755;52.208;6.964;2023-02-19T10:50:50;101948.66;;;8.59;100.00
15308;BME280;7755;52.208;6.964;2023-02-19T10:55:13;101952.75;;;8.76;100.00
15308;BME280;7755;52.208;6.964;2023-02-19T10:59:25;101967.69;;;8.93;100.00
15308;BME280;7755;52.208;6.964;2023-02-19T11:03:29;101975.03;;;8.99;100.00
15308;BME280;7755;52.208;6.964;2023-02-19T11:07:32;101964.41;;;9.05;100.00
15308;BME280;7755;52.208;6.964;2023-02-19T11:11:37;101969.28;;;9.16;100.00
15308;BME280;7755;52.208;6.964;2023-02-19T11:15:43;101964.50;;;9.18;100.00
15308;BME280;7755;52.208;6.964;2023-02-19T11:19:53;101963.88;;;9.16;100.00
15308;BME280;7755;52.208;6.964;2023-02-19T11:23:58;101961.53;;;9.13;100.00
15308;BME280;7755;52.208;6.964;2023-02-19T11:28:04;101967.47;;;9.23;100.00
15308;BME280;7755;52.208;6.964;2023-02-19T11:32:25;101972.06;;;9.22;100.00
15308;BME280;7755;52.208;6.964;2023-02-19T11:36:32;101964.78;;;9.29;100.00
15308;BME280;7755;52.208;6.964;2023-02-19T11:40:40;101966.41;;;9.24;100.00
15308;BME280;7755;52.208;6.964;2023-02-19T11:45:02;101960.19;;;9.30;100.00
15308;BME280;7755;52.208;6.964;2023-02-19T11:49:20;101970.00;;;9.31;100.00
15308;BME280;7755;52.208;6.964;2023-02-19T11:53:28;101965.66;;;9.37;100.00
15308;BME280;7755;52.208;6.964;2023-02-19T11:57:41;101972.84;;;9.57;100.00
15308;BME280;7755;52.208;6.964;2023-02-19T12:02:06;101977.50;;;9.77;100.00
15308;BME280;7755;52.208;6.964;2023-02-19T12:06:22;101976.25;;;9.79;100.00
15308;BME280;7755;52.208;6.964;2023-02-19T12:10:36;101973.16;;;9.82;100.00
15308;BME280;7755;52.208;6.964;2023-02-19T12:19:43;102000.25;;;9.69;100.00
15308;BME280;7755;52.208;6.964;2023-02-19T12:24:04;101982.50;;;9.73;100.00
15308;BME280;7755;52.208;6.964;2023-02-19T12:28:33;101976.28;;;9.86;100.00
15308;BME280;7755;52.208;6.964;2023-02-19T12:32:48;101985.88;;;9.89;100.00
15308;BME280;7755;52.208;6.964;2023-02-19T12:37:07;101989.66;;;9.94;100.00
15308;BME280;7755;52.208;6.964;2023-02-19T12:41:19;101989.06;;;9.99;100.00
15308;BME280;7755;52.208;6.964;2023-02-19T12:45:30;102005.38;;;10.05;100.00
15308;BME280;7755;52.208;6.964;2023-02-19T12:49:36;101989.66;;;9.94;100.00
15308;BME280;7755;52.208;6.964;2023-02-19T12:53:46;101997.59;;;9.82;100.00
15308;BME280;7755;52.208;6.964;2023-02-19T12:57:53;101990.28;;;9.83;100.00
15308;BME280;7755;52.208;6.964;2023-02-19T13:02:02;101981.09;;;9.91;100.00
15308;BME280;7755;52.208;6.964;2023-02-19T13:06:14;102008.06;;;9.92;100.00
15308;BME280;7755;52.208;6.964;2023-02-19T13:10:26;102010.78;;;9.92;100.00
15308;BME280;7755;52.208;6.964;2023-02-19T13:14:36;102018.53;;;10.02;100.00
15308;BME280;7755;52.208;6.964;2023-02-19T13:18:44;102015.81;;;10.08;100.00
15308;BME280;7755;52.208;6.964;2023-02-19T13:22:57;102013.94;;;10.09;100.00
15308;BME280;7755;52.208;6.964;2023-02-19T13:27:42;102024.00;;;10.15;100.00
15308;BME280;7755;52.208;6.964;2023-02-19T13:36:27;102029.09;;;10.25;100.00
15308;BME280;7755;52.208;6.964;2023-02-19T13:40:33;102037.25;;;10.25;100.00
15308;BME280;7755;52.208;6.964;2023-02-19T13:44:38;102051.25;;;10.28;100.00
15308;BME280;7755;52.208;6.964;2023-02-19T13:48:43;102059.22;;;10.30;100.00
15308;BME280;7755;52.208;6.964;2023-02-19T13:52:47;102050.53;;;10.13;100.00
15308;BME280;7755;52.208;6.964;2023-02-19T14:02:12;102063.91;;;10.08;100.00
15308;BME280;7755;52.208;6.964;2023-02-19T14:06:16;102074.16;;;10.06;100.00
15308;BME280;7755;52.208;6.964;2023-02-19T14:19:57;102049.88;;;9.98;100.00
15308;BME280;7755;52.208;6.964;2023-02-19T14:24:02;102054.47;;;9.97;100.00
15308;BME280;7755;52.208;6.964;2023-02-19T14:28:15;102050.47;;;9.93;100.00
15308;BME280;7755;52.208;6.964;2023-02-19T14:32:19;102046.53;;;9.96;100.00
15308;BME280;7755;52.208;6.964;2023-02-19T14:36:31;102051.09;;;9.95;100.00
15308;BME280;7755;52.208;6.964;2023-02-19T14:40:39;102040.06;;;9.97;100.00
15308;BME280;7755;52.208;6.964;2023-02-19T14:44:53;102034.63;;;9.97;100.00
15308;BME280;7755;52.208;6.964;2023-02-19T14:49:18;102029.38;;;9.95;99.64
15308;BME280;7755;52.208;6.964;2023-02-19T14:53:36;102016.22;;;9.99;99.28
15308;BME280;7755;52.208;6.964;2023-02-19T14:57:42;102002.66;;;9.99;98.40
15308;BME280;7755;52.208;6.964;2023-02-19T15:01:53;101995.31;;;9.93;98.71
15308;BME280;7755;52.208;6.964;2023-02-19T15:06:02;101995.94;;;10.01;98.89
15308;BME280;7755;52.208;6.964;2023-02-19T15:10:09;101989.09;;;10.12;98.28
15308;BME280;7755;52.208;6.964;2023-02-19T15:14:18;101984.72;;;10.11;98.21
15308;BME280;7755;52.208;6.964;2023-02-19T15:18:24;101989.31;;;10.10;97.83
15308;BME280;7755;52.208;6.964;2023-02-19T15:22:29;101994.06;;;9.95;97.57
15308;BME280;7755;52.208;6.964;2023-02-19T15:26:36;102002.19;;;9.95;98.17
15308;BME280;7755;52.208;6.964;2023-02-19T15:30:41;102004.72;;;9.90;99.29
15308;BME280;7755;52.208;6.964;2023-02-19T15:34:53;102018.88;;;9.79;99.36
15308;BME280;7755;52.208;6.964;2023-02-19T15:38:58;102013.84;;;9.76;100.00
15308;BME280;7755;52.208;6.964;2023-02-19T15:43:04;102015.72;;;9.75;100.00
15308;BME280;7755;52.208;6.964;2023-02-19T15:47:14;102028.44;;;9.75;100.00
15308;BME280;7755;52.208;6.964;2023-02-19T15:51:24;102032.84;;;9.69;100.00
15308;BME280;7755;52.208;6.964;2023-02-19T15:55:32;102030.13;;;9.69;100.00
15308;BME280;7755;52.208;6.964;2023-02-19T15:59:41;102031.31;;;9.60;100.00
15308;BME280;7755;52.208;6.964;2023-02-19T16:03:47;102033.97;;;9.47;100.00
15308;BME280;7755;52.208;6.964;2023-02-19T16:08:07;102028.69;;;9.39;100.00
15308;BME280;7755;52.208;6.964;2023-02-19T16:12:18;102039.72;;;9.30;100.00
15308;BME280;7755;52.208;6.964;2023-02-19T16:16:25;102040.09;;;9.27;100.00
15308;BME280;7755;52.208;6.964;2023-02-19T16:20:32;102040.31;;;9.26;100.00
15308;BME280;7755;52.208;6.964;2023-02-19T16:24:42;102055.97;;;9.24;100.00
15308;BME280;7755;52.208;6.964;2023-02-19T16:28:50;102060.50;;;9.17;100.00
15308;BME280;7755;52.208;6.964;2023-02-19T16:33:34;102072.16;;;9.11;100.00
15308;BME280;7755;52.208;6.964;2023-02-19T16:37:38;102080.88;;;9.06;100.00
15308;BME280;7755;52.208;6.964;2023-02-19T16:46:18;102079.78;;;9.00;100.00
15308;BME280;7755;52.208;6.964;2023-02-19T16:50:24;102077.94;;;9.01;100.00
15308;BME280;7755;52.208;6.964;2023-02-19T16:54:27;102086.00;;;8.94;100.00
15308;BME280;7755;52.208;6.964;2023-02-19T16:58:47;102091.13;;;8.83;100.00
15308;BME280;7755;52.208;6.964;2023-02-19T17:03:06;102093.50;;;8.71;100.00
15308;BME280;7755;52.208;6.964;2023-02-19T17:07:23;102098.22;;;8.62;100.00
15308;BME280;7755;52.208;6.964;2023-02-19T17:11:28;102101.13;;;8.61;100.00
15308;BME280;7755;52.208;6.964;2023-02-19T17:15:32;102109.56;;;8.51;100.00
15308;BME280;7755;52.208;6.964;2023-02-19T17:19:35;102106.16;;;8.42;100.00
15308;BME280;7755;52.208;6.964;2023-02-19T17:23:41;102103.38;;;8.36;100.00
15308;BME280;7755;52.208;6.964;2023-02-19T17:27:45;102111.66;;;8.34;100.00
15308;BME280;7755;52.208;6.964;2023-02-19T17:31:49;102118.13;;;8.33;100.00
15308;BME280;7755;52.208;6.964;2023-02-19T17:35:53;102117.75;;;8.36;100.00
15308;BME280;7755;52.208;6.964;2023-02-19T17:39:57;102113.38;;;8.35;100.00
15308;BME280;7755;52.208;6.964;2023-02-19T17:44:01;102115.41;;;8.33;100.00
15308;BME280;7755;52.208;6.964;2023-02-19T17:48:04;102134.19;;;8.35;100.00
15308;BME280;7755;52.208;6.964;2023-02-19T17:52:08;102128.28;;;8.31;100.00
15308;BME280;7755;52.208;6.964;2023-02-19T17:56:16;102126.41;;;8.32;100.00
15308;BME280;7755;52.208;6.964;2023-02-19T18:00:22;102123.06;;;8.30;100.00
15308;BME280;7755;52.208;6.964;2023-02-19T18:04:26;102145.13;;;8.27;100.00
15308;BME280;7755;52.208;6.964;2023-02-19T18:08:30;102141.56;;;8.26;100.00
15308;BME280;7755;52.208;6.964;2023-02-19T18:12:36;102146.59;;;8.29;100.00
15308;BME280;7755;52.208;6.964;2023-02-19T18:16:44;102142.59;;;8.25;100.00
15308;BME280;7755;52.208;6.964;2023-02-19T18:20:50;102139.22;;;8.23;100.00
15308;BME280;7755;52.208;6.964;2023-02-19T18:24:54;102141.41;;;8.13;100.00
15308;BME280;7755;52.208;6.964;2023-02-19T18:29:05;102145.53;;;8.09;100.00
15308;BME280;7755;52.208;6.964;2023-02-19T18:33:09;102148.03;;;8.10;100.00
15308;BME280;7755;52.208;6.964;2023-02-19T18:37:14;102146.66;;;8.00;100.00
15308;BME280;7755;52.208;6.964;2023-02-19T18:41:24;102152.72;;;8.02;100.00
15308;BME280;7755;52.208;6.964;2023-02-19T18:45:36;102154.31;;;7.96;100.00
15308;BME280;7755;52.208;6.964;2023-02-19T18:49:49;102152.00;;;7.93;100.00
15308;BME280;7755;52.208;6.964;2023-02-19T18:53:53;102165.69;;;7.91;100.00
15308;BME280;7755;52.208;6.964;2023-02-19T18:57:58;102164.59;;;7.86;100.00
15308;BME280;7755;52.208;6.964;2023-02-19T19:02:04;102160.56;;;7.82;100.00
15308;BME280;7755;52.208;6.964;2023-02-19T19:06:08;102167.84;;;7.81;100.00
15308;BME280;7755;52.208;6.964;2023-02-19T19:10:11;102159.72;;;7.81;100.00
15308;BME280;7755;52.208;6.964;2023-02-19T19:14:16;102150.38;;;7.84;100.00
15308;BME280;7755;52.208;6.964;2023-02-19T19:18:20;102145.44;;;7.87;100.00
15308;BME280;7755;52.208;6.964;2023-02-19T19:22:23;102139.94;;;7.81;100.00
15308;BME280;7755;52.208;6.964;2023-02-19T19:26:43;102141.88;;;7.72;100.00
15308;BME280;7755;52.208;6.964;2023-02-19T19:30:47;102146.09;;;7.75;100.00
15308;BME280;7755;52.208;6.964;2023-02-19T19:34:57;102150.97;;;7.79;100.00
15308;BME280;7755;52.208;6.964;2023-02-19T19:39:12;102156.38;;;7.79;100.00
15308;BME280;7755;52.208;6.964;2023-02-19T19:43:16;102161.94;;;7.78;100.00
15308;BME280;7755;52.208;6.964;2023-02-19T19:47:19;102161.50;;;7.74;100.00
15308;BME280;7755;52.208;6.964;2023-02-19T19:51:29;102163.53;;;7.72;100.00
15308;BME280;7755;52.208;6.964;2023-02-19T19:55:33;102166.25;;;7.72;100.00
15308;BME280;7755;52.208;6.964;2023-02-19T19:59:36;102182.78;;;7.77;100.00
15308;BME280;7755;52.208;6.964;2023-02-19T20:03:40;102183.63;;;7.78;100.00
15308;BME280;7755;52.208;6.964;2023-02-19T20:07:45;102175.88;;;7.75;100.00
15308;BME280;7755;52.208;6.964;2023-02-19T20:11:49;102184.66;;;7.77;100.00
15308;BME280;7755;52.208;6.964;2023-02-19T20:15:52;102186.50;;;7.76;100.00
15308;BME280;7755;52.208;6.964;2023-02-19T20:19:57;102169.13;;;7.71;100.00
15308;BME280;7755;52.208;6.964;2023-02-19T20:24:04;102184.75;;;7.69;100.00
15308;BME280;7755;52.208;6.964;2023-02-19T20:28:24;102176.63;;;7.69;100.00
15308;BME280;7755;52.208;6.964;2023-02-19T20:32:39;102166.91;;;7.59;100.00
15308;BME280;7755;52.208;6.964;2023-02-19T20:36:51;102163.91;;;7.54;100.00
15308;BME280;7755;52.208;6.964;2023-02-19T20:40:57;102162.69;;;7.57;100.00
15308;BME280;7755;52.208;6.964;2023-02-19T20:45:03;102164.94;;;7.53;100.00
15308;BME280;7755;52.208;6.964;2023-02-19T20:49:07;102168.38;;;7.47;100.00
15308;BME280;7755;52.208;6.964;2023-02-19T20:53:11;102169.94;;;7.42;100.00
15308;BME280;7755;52.208;6.964;2023-02-19T20:57:15;102181.50;;;7.35;100.00
15308;BME280;7755;52.208;6.964;2023-02-19T21:01:24;102181.03;;;7.32;100.00
15308;BME280;7755;52.208;6.964;2023-02-19T21:05:28;102173.91;;;7.31;100.00
15308;BME280;7755;52.208;6.964;2023-02-19T21:09:33;102170.38;;;7.30;100.00
15308;BME280;7755;52.208;6.964;2023-02-19T21:13:41;102160.28;;;7.24;100.00
15308;BME280;7755;52.208;6.964;2023-02-19T21:17:46;102150.22;;;7.18;100.00
15308;BME280;7755;52.208;6.964;2023-02-19T21:22:03;102149.94;;;7.13;100.00
15308;BME280;7755;52.208;6.964;2023-02-19T21:26:31;102148.28;;;7.04;100.00
15308;BME280;7755;52.208;6.964;2023-02-19T21:30:36;102153.25;;;7.00;100.00
15308;BME280;7755;52.208;6.964;2023-02-19T21:34:40;102149.28;;;6.88;100.00
15308;BME280;7755;52.208;6.964;2023-02-19T21:38:44;102160.47;;;6.85;100.00
15308;BME280;7755;52.208;6.964;2023-02-19T21:42:48;102161.47;;;6.84;100.00
15308;BME280;7755;52.208;6.964;2023-02-19T21:46:52;102159.13;;;6.81;100.00
15308;BME280;7755;52.208;6.964;2023-02-19T21:50:56;102153.06;;;6.79;100.00
15308;BME280;7755;52.208;6.964;2023-02-19T21:54:59;102147.88;;;6.69;100.00
15308;BME280;7755;52.208;6.964;2023-02-19T21:59:02;102163.63;;;6.66;100.00
15308;BME280;7755;52.208;6.964;2023-02-19T22:03:07;102156.88;;;6.62;100.00
15308;BME280;7755;52.208;6.964;2023-02-19T22:07:17;102159.28;;;6.56;100.00
15308;BME280;7755;52.208;6.964;2023-02-19T22:11:21;102170.50;;;6.45;100.00
15308;BME280;7755;52.208;6.964;2023-02-19T22:15:26;102167.69;;;6.39;100.00